sensor_id;sensor_type;location;lat;lon;timestamp;P1;durP1;ratioP1;P2;durP2;ratioP2
70132;SDS011;57495;49.922;7.966;2024-02-26T00:00:14;3.67;;;0.60;;
70132;SDS011;57495;49.922;7.966;2024-02-26T00:02:17;2.85;;;0.70;;
70132;SDS011;57495;49.922;7.966;2024-02-26T00:04:18;2.80;;;0.65;;
70132;SDS011;57495;49.922;7.966;2024-02-26T00:06:19;4.63;;;0.80;;
70132;SDS011;57495;49.922;7.966;2024-02-26T00:08:21;4.97;;;1.10;;
70132;SDS011;57495;49.922;7.966;2024-02-26T00:10:22;3.33;;;0.70;;
70132;SDS011;57495;49.922;7.966;2024-02-26T00:12:24;16.48;;;5.72;;
70132;SDS011;57495;49.922;7.966;2024-02-26T00:14:25;16.92;;;6.03;;
70132;SDS011;57495;49.922;7.966;2024-02-26T00:16:27;15.10;;;4.75;;
70132;SDS011;57495;49.922;7.966;2024-02-26T00:18:29;8.02;;;3.05;;
70132;SDS011;57495;49.922;7.966;2024-02-26T00:20:31;10.23;;;2.37;;
70132;SDS011;57495;49.922;7.966;2024-02-26T00:22:32;6.53;;;1.95;;
70132;SDS011;57495;49.922;7.966;2024-02-26T00:24:33;5.63;;;1.90;;
70132;SDS011;57495;49.922;7.966;2024-02-26T00:26:35;9.27;;;2.13;;
70132;SDS011;57495;49.922;7.966;2024-02-26T00:28:35;7.07;;;2.50;;
70132;SDS011;57495;49.922;7.966;2024-02-26T00:30:36;5.03;;;1.10;;
70132;SDS011;57495;49.922;7.966;2024-02-26T00:32:38;4.25;;;1.95;;
70132;SDS011;57495;49.922;7.966;2024-02-26T00:34:41;6.33;;;2.07;;
70132;SDS011;57495;49.922;7.966;2024-02-26T00:36:42;5.88;;;1.50;;
70132;SDS011;57495;49.922;7.966;2024-02-26T00:38:43;5.72;;;2.13;;
70132;SDS011;57495;49.922;7.966;2024-02-26T00:40:50;4.60;;;1.17;;
70132;SDS011;57495;49.922;7.966;2024-02-26T00:42:51;5.25;;;1.10;;
70132;SDS011;57495;49.922;7.966;2024-02-26T00:44:53;4.47;;;0.77;;
70132;SDS011;57495;49.922;7.966;2024-02-26T00:46:54;4.22;;;0.95;;
70132;SDS011;57495;49.922;7.966;2024-02-26T00:48:56;3.38;;;0.90;;
70132;SDS011;57495;49.922;7.966;2024-02-26T00:50:58;4.93;;;1.10;;
70132;SDS011;57495;49.922;7.966;2024-02-26T00:53:00;3.30;;;0.73;;
70132;SDS011;57495;49.922;7.966;2024-02-26T00:55:02;3.83;;;0.70;;
70132;SDS011;57495;49.922;7.966;2024-02-26T00:57:04;3.33;;;0.85;;
70132;SDS011;57495;49.922;7.966;2024-02-26T00:59:05;3.67;;;0.75;;
70132;SDS011;57495;49.922;7.966;2024-02-26T01:01:07;3.60;;;0.82;;
70132;SDS011;57495;49.922;7.966;2024-02-26T01:03:09;3.97;;;0.63;;
70132;SDS011;57495;49.922;7.966;2024-02-26T01:05:10;2.97;;;0.73;;
70132;SDS011;57495;49.922;7.966;2024-02-26T01:07:13;4.80;;;0.90;;
70132;SDS011;57495;49.922;7.966;2024-02-26T01:09:14;4.40;;;0.90;;
70132;SDS011;57495;49.922;7.966;2024-02-26T01:11:17;4.22;;;0.70;;
70132;SDS011;57495;49.922;7.966;2024-02-26T01:13:18;6.63;;;1.05;;
70132;SDS011;57495;49.922;7.966;2024-02-26T01:15:20;4.77;;;0.93;;
70132;SDS011;57495;49.922;7.966;2024-02-26T01:17:23;3.78;;;0.73;;
70132;SDS011;57495;49.922;7.966;2024-02-26T01:19:25;4.32;;;0.85;;
70132;SDS011;57495;49.922;7.966;2024-02-26T01:21:26;4.10;;;0.60;;
70132;SDS011;57495;49.922;7.966;2024-02-26T01:23:30;3.72;;;1.13;;
70132;SDS011;57495;49.922;7.966;2024-02-26T01:25:31;2.77;;;0.63;;
70132;SDS011;57495;49.922;7.966;2024-02-26T01:27:32;3.90;;;0.80;;
70132;SDS011;57495;49.922;7.966;2024-02-26T01:29:34;2.88;;;0.60;;
70132;SDS011;57495;49.922;7.966;2024-02-26T01:31:35;3.70;;;0.85;;
70132;SDS011;57495;49.922;7.966;2024-02-26T01:33:37;3.40;;;0.80;;
70132;SDS011;57495;49.922;7.966;2024-02-26T01:35:38;3.10;;;0.67;;
70132;SDS011;57495;49.922;7.966;2024-02-26T01:37:39;3.33;;;0.82;;
70132;SDS011;57495;49.922;7.966;2024-02-26T01:39:43;4.22;;;0.65;;
70132;SDS011;57495;49.922;7.966;2024-02-26T01:41:44;3.05;;;0.73;;
70132;SDS011;57495;49.922;7.966;2024-02-26T01:43:46;2.55;;;0.82;;
70132;SDS011;57495;49.922;7.966;2024-02-26T01:45:47;5.60;;;1.20;;
70132;SDS011;57495;49.922;7.966;2024-02-26T01:47:49;3.28;;;0.70;;
70132;SDS011;57495;49.922;7.966;2024-02-26T01:49:51;3.63;;;1.10;;
70132;SDS011;57495;49.922;7.966;2024-02-26T01:51:53;3.60;;;0.88;;
70132;SDS011;57495;49.922;7.966;2024-02-26T01:53:54;5.07;;;1.20;;
70132;SDS011;57495;49.922;7.966;2024-02-26T01:55:57;4.17;;;0.83;;
70132;SDS011;57495;49.922;7.966;2024-02-26T01:57:59;5.00;;;1.10;;
70132;SDS011;57495;49.922;7.966;2024-02-26T02:00:01;4.13;;;1.10;;
70132;SDS011;57495;49.922;7.966;2024-02-26T02:02:03;3.03;;;0.80;;
70132;SDS011;57495;49.922;7.966;2024-02-26T02:04:09;2.88;;;0.85;;
70132;SDS011;57495;49.922;7.966;2024-02-26T02:06:10;3.43;;;0.63;;
70132;SDS011;57495;49.922;7.966;2024-02-26T02:08:12;3.65;;;0.82;;
70132;SDS011;57495;49.922;7.966;2024-02-26T02:10:14;3.08;;;0.70;;
70132;SDS011;57495;49.922;7.966;2024-02-26T02:12:16;3.28;;;0.80;;
70132;SDS011;57495;49.922;7.966;2024-02-26T02:14:18;3.53;;;1.10;;
70132;SDS011;57495;49.922;7.966;2024-02-26T02:16:19;3.60;;;1.00;;
70132;SDS011;57495;49.922;7.966;2024-02-26T02:18:20;4.15;;;0.90;;
70132;SDS011;57495;49.922;7.966;2024-02-26T02:20:26;3.88;;;1.17;;
70132;SDS011;57495;49.922;7.966;2024-02-26T02:22:27;3.78;;;1.23;;
70132;SDS011;57495;49.922;7.966;2024-02-26T02:24:29;3.10;;;0.70;;
70132;SDS011;57495;49.922;7.966;2024-02-26T02:26:30;3.33;;;0.90;;
70132;SDS011;57495;49.922;7.966;2024-02-26T02:28:31;3.60;;;1.20;;
70132;SDS011;57495;49.922;7.966;2024-02-26T02:30:33;4.60;;;0.90;;
70132;SDS011;57495;49.922;7.966;2024-02-26T02:32:35;3.08;;;0.68;;
70132;SDS011;57495;49.922;7.966;2024-02-26T02:34:40;3.47;;;0.80;;
70132;SDS011;57495;49.922;7.966;2024-02-26T02:36:52;3.90;;;0.77;;
70132;SDS011;57495;49.922;7.966;2024-02-26T02:38:54;5.68;;;0.90;;
70132;SDS011;57495;49.922;7.966;2024-02-26T02:40:56;3.97;;;0.95;;
70132;SDS011;57495;49.922;7.966;2024-02-26T02:42:56;5.10;;;1.10;;
70132;SDS011;57495;49.922;7.966;2024-02-26T02:44:58;4.03;;;1.15;;
70132;SDS011;57495;49.922;7.966;2024-02-26T02:47:00;3.70;;;0.70;;
70132;SDS011;57495;49.922;7.966;2024-02-26T02:49:00;5.00;;;1.00;;
70132;SDS011;57495;49.922;7.966;2024-02-26T02:51:02;3.13;;;0.90;;
70132;SDS011;57495;49.922;7.966;2024-02-26T02:53:05;3.03;;;0.93;;
70132;SDS011;57495;49.922;7.966;2024-02-26T02:55:07;3.65;;;0.90;;
70132;SDS011;57495;49.922;7.966;2024-02-26T02:57:08;4.47;;;1.10;;
70132;SDS011;57495;49.922;7.966;2024-02-26T02:59:09;4.13;;;0.80;;
70132;SDS011;57495;49.922;7.966;2024-02-26T03:01:10;4.28;;;0.82;;
70132;SDS011;57495;49.922;7.966;2024-02-26T03:03:13;3.50;;;0.70;;
70132;SDS011;57495;49.922;7.966;2024-02-26T03:05:15;3.28;;;0.68;;
70132;SDS011;57495;49.922;7.966;2024-02-26T03:07:17;3.65;;;1.08;;
70132;SDS011;57495;49.922;7.966;2024-02-26T03:09:19;4.45;;;0.88;;
70132;SDS011;57495;49.922;7.966;2024-02-26T03:11:21;3.03;;;0.60;;
70132;SDS011;57495;49.922;7.966;2024-02-26T03:13:22;4.45;;;1.00;;
70132;SDS011;57495;49.922;7.966;2024-02-26T03:15:23;3.45;;;0.60;;
70132;SDS011;57495;49.922;7.966;2024-02-26T03:17:24;3.97;;;0.70;;
70132;SDS011;57495;49.922;7.966;2024-02-26T03:19:25;3.00;;;0.68;;
70132;SDS011;57495;49.922;7.966;2024-02-26T03:21:27;3.53;;;0.73;;
70132;SDS011;57495;49.922;7.966;2024-02-26T03:23:28;3.38;;;0.73;;
70132;SDS011;57495;49.922;7.966;2024-02-26T03:25:31;3.65;;;1.10;;
70132;SDS011;57495;49.922;7.966;2024-02-26T03:27:32;2.50;;;0.60;;
70132;SDS011;57495;49.922;7.966;2024-02-26T03:29:34;4.43;;;0.60;;
70132;SDS011;57495;49.922;7.966;2024-02-26T03:31:35;3.95;;;0.73;;
70132;SDS011;57495;49.922;7.966;2024-02-26T03:33:36;2.83;;;0.60;;
70132;SDS011;57495;49.922;7.966;2024-02-26T03:35:38;3.28;;;1.00;;
70132;SDS011;57495;49.922;7.966;2024-02-26T03:37:39;3.30;;;0.52;;
70132;SDS011;57495;49.922;7.966;2024-02-26T03:39:41;3.67;;;0.82;;
70132;SDS011;57495;49.922;7.966;2024-02-26T03:41:43;3.78;;;0.73;;
70132;SDS011;57495;49.922;7.966;2024-02-26T03:43:45;2.95;;;0.70;;
70132;SDS011;57495;49.922;7.966;2024-02-26T03:45:47;3.60;;;0.90;;
70132;SDS011;57495;49.922;7.966;2024-02-26T03:47:48;3.15;;;0.70;;
70132;SDS011;57495;49.922;7.966;2024-02-26T03:49:49;3.28;;;0.60;;
70132;SDS011;57495;49.922;7.966;2024-02-26T03:51:51;3.47;;;0.65;;
70132;SDS011;57495;49.922;7.966;2024-02-26T03:53:52;2.83;;;0.68;;
70132;SDS011;57495;49.922;7.966;2024-02-26T03:55:54;2.85;;;0.60;;
70132;SDS011;57495;49.922;7.966;2024-02-26T03:57:56;2.28;;;0.60;;
70132;SDS011;57495;49.922;7.966;2024-02-26T03:59:57;2.90;;;0.75;;
70132;SDS011;57495;49.922;7.966;2024-02-26T04:02:00;2.83;;;0.70;;
70132;SDS011;57495;49.922;7.966;2024-02-26T04:04:02;3.15;;;1.00;;
70132;SDS011;57495;49.922;7.966;2024-02-26T04:06:04;4.05;;;1.00;;
70132;SDS011;57495;49.922;7.966;2024-02-26T04:08:04;3.70;;;1.00;;
70132;SDS011;57495;49.922;7.966;2024-02-26T04:10:10;2.83;;;0.70;;
70132;SDS011;57495;49.922;7.966;2024-02-26T04:12:11;3.33;;;1.00;;
70132;SDS011;57495;49.922;7.966;2024-02-26T04:14:13;3.40;;;1.02;;
70132;SDS011;57495;49.922;7.966;2024-02-26T04:16:15;3.37;;;0.80;;
70132;SDS011;57495;49.922;7.966;2024-02-26T04:18:16;4.85;;;0.90;;
70132;SDS011;57495;49.922;7.966;2024-02-26T04:20:18;3.35;;;0.65;;
70132;SDS011;57495;49.922;7.966;2024-02-26T04:22:19;3.55;;;0.90;;
70132;SDS011;57495;49.922;7.966;2024-02-26T04:24:21;4.30;;;1.17;;
70132;SDS011;57495;49.922;7.966;2024-02-26T04:26:22;3.03;;;1.00;;
70132;SDS011;57495;49.922;7.966;2024-02-26T04:28:24;2.80;;;0.52;;
70132;SDS011;57495;49.922;7.966;2024-02-26T04:30:30;3.30;;;0.90;;
70132;SDS011;57495;49.922;7.966;2024-02-26T04:32:31;4.32;;;0.80;;
70132;SDS011;57495;49.922;7.966;2024-02-26T04:34:32;3.33;;;1.00;;
70132;SDS011;57495;49.922;7.966;2024-02-26T04:36:33;3.35;;;0.90;;
70132;SDS011;57495;49.922;7.966;2024-02-26T04:38:34;3.50;;;0.80;;
70132;SDS011;57495;49.922;7.966;2024-02-26T04:40:36;3.13;;;0.70;;
70132;SDS011;57495;49.922;7.966;2024-02-26T04:42:37;3.42;;;1.13;;
70132;SDS011;57495;49.922;7.966;2024-02-26T04:44:38;4.03;;;1.10;;
70132;SDS011;57495;49.922;7.966;2024-02-26T04:46:41;3.65;;;1.02;;
70132;SDS011;57495;49.922;7.966;2024-02-26T04:48:43;3.10;;;1.00;;
70132;SDS011;57495;49.922;7.966;2024-02-26T04:50:46;3.03;;;0.70;;
70132;SDS011;57495;49.922;7.966;2024-02-26T04:52:48;3.70;;;0.70;;
70132;SDS011;57495;49.922;7.966;2024-02-26T04:54:49;3.35;;;0.85;;
70132;SDS011;57495;49.922;7.966;2024-02-26T04:56:51;4.28;;;1.17;;
70132;SDS011;57495;49.922;7.966;2024-02-26T04:58:52;3.97;;;1.05;;
70132;SDS011;57495;49.922;7.966;2024-02-26T05:00:52;4.70;;;1.13;;
70132;SDS011;57495;49.922;7.966;2024-02-26T05:02:55;4.55;;;1.23;;
70132;SDS011;57495;49.922;7.966;2024-02-26T05:04:56;4.68;;;0.90;;
70132;SDS011;57495;49.922;7.966;2024-02-26T05:06:57;3.63;;;0.90;;
70132;SDS011;57495;49.922;7.966;2024-02-26T05:08:59;4.88;;;1.00;;
70132;SDS011;57495;49.922;7.966;2024-02-26T05:10:59;3.13;;;1.03;;
70132;SDS011;57495;49.922;7.966;2024-02-26T05:13:02;3.33;;;0.85;;
70132;SDS011;57495;49.922;7.966;2024-02-26T05:15:04;4.88;;;1.38;;
70132;SDS011;57495;49.922;7.966;2024-02-26T05:17:06;3.97;;;1.60;;
70132;SDS011;57495;49.922;7.966;2024-02-26T05:19:09;4.65;;;1.10;;
70132;SDS011;57495;49.922;7.966;2024-02-26T05:21:10;4.03;;;1.05;;
70132;SDS011;57495;49.922;7.966;2024-02-26T05:23:12;3.47;;;1.13;;
70132;SDS011;57495;49.922;7.966;2024-02-26T05:25:14;5.00;;;1.75;;
70132;SDS011;57495;49.922;7.966;2024-02-26T05:27:15;4.78;;;1.20;;
70132;SDS011;57495;49.922;7.966;2024-02-26T05:29:17;4.22;;;1.38;;
70132;SDS011;57495;49.922;7.966;2024-02-26T05:31:18;4.50;;;1.50;;
70132;SDS011;57495;49.922;7.966;2024-02-26T05:33:20;4.60;;;1.88;;
70132;SDS011;57495;49.922;7.966;2024-02-26T05:35:23;5.68;;;1.85;;
70132;SDS011;57495;49.922;7.966;2024-02-26T05:37:24;5.40;;;1.80;;
70132;SDS011;57495;49.922;7.966;2024-02-26T05:39:25;5.70;;;2.08;;
70132;SDS011;57495;49.922;7.966;2024-02-26T05:41:27;4.68;;;1.92;;
70132;SDS011;57495;49.922;7.966;2024-02-26T05:43:28;5.97;;;1.80;;
70132;SDS011;57495;49.922;7.966;2024-02-26T05:45:30;4.40;;;2.00;;
70132;SDS011;57495;49.922;7.966;2024-02-26T05:47:32;5.38;;;1.75;;
70132;SDS011;57495;49.922;7.966;2024-02-26T05:49:32;4.88;;;1.83;;
70132;SDS011;57495;49.922;7.966;2024-02-26T05:51:35;5.43;;;1.83;;
70132;SDS011;57495;49.922;7.966;2024-02-26T05:53:36;4.53;;;1.73;;
70132;SDS011;57495;49.922;7.966;2024-02-26T05:55:37;5.53;;;1.83;;
70132;SDS011;57495;49.922;7.966;2024-02-26T05:57:38;4.45;;;1.80;;
70132;SDS011;57495;49.922;7.966;2024-02-26T05:59:40;6.90;;;2.88;;
70132;SDS011;57495;49.922;7.966;2024-02-26T06:01:41;7.22;;;2.83;;
70132;SDS011;57495;49.922;7.966;2024-02-26T06:03:43;7.72;;;3.10;;
70132;SDS011;57495;49.922;7.966;2024-02-26T06:05:44;5.93;;;2.78;;
70132;SDS011;57495;49.922;7.966;2024-02-26T06:07:47;5.97;;;2.70;;
70132;SDS011;57495;49.922;7.966;2024-02-26T06:09:48;7.60;;;2.70;;
70132;SDS011;57495;49.922;7.966;2024-02-26T06:11:50;6.40;;;3.00;;
70132;SDS011;57495;49.922;7.966;2024-02-26T06:13:51;7.60;;;3.53;;
70132;SDS011;57495;49.922;7.966;2024-02-26T06:15:52;9.57;;;3.60;;
70132;SDS011;57495;49.922;7.966;2024-02-26T06:17:54;9.40;;;3.17;;
70132;SDS011;57495;49.922;7.966;2024-02-26T06:19:55;7.10;;;3.70;;
70132;SDS011;57495;49.922;7.966;2024-02-26T06:21:56;8.00;;;4.00;;
70132;SDS011;57495;49.922;7.966;2024-02-26T06:24:01;7.93;;;3.78;;
70132;SDS011;57495;49.922;7.966;2024-02-26T06:26:02;5.47;;;2.92;;
70132;SDS011;57495;49.922;7.966;2024-02-26T06:28:04;6.30;;;3.38;;
70132;SDS011;57495;49.922;7.966;2024-02-26T06:30:06;8.23;;;3.47;;
70132;SDS011;57495;49.922;7.966;2024-02-26T06:32:08;6.97;;;3.58;;
70132;SDS011;57495;49.922;7.966;2024-02-26T06:34:10;7.43;;;3.53;;
70132;SDS011;57495;49.922;7.966;2024-02-26T06:36:11;7.10;;;3.42;;
70132;SDS011;57495;49.922;7.966;2024-02-26T06:38:13;9.55;;;3.35;;
70132;SDS011;57495;49.922;7.966;2024-02-26T06:40:16;6.22;;;3.10;;
70132;SDS011;57495;49.922;7.966;2024-02-26T06:42:18;6.30;;;2.95;;
70132;SDS011;57495;49.922;7.966;2024-02-26T06:44:19;6.53;;;3.20;;
70132;SDS011;57495;49.922;7.966;2024-02-26T06:46:21;7.72;;;2.85;;
70132;SDS011;57495;49.922;7.966;2024-02-26T06:48:23;7.30;;;2.90;;
70132;SDS011;57495;49.922;7.966;2024-02-26T06:50:24;11.95;;;6.05;;
70132;SDS011;57495;49.922;7.966;2024-02-26T06:52:26;13.68;;;7.72;;
70132;SDS011;57495;49.922;7.966;2024-02-26T06:54:27;9.38;;;4.75;;
70132;SDS011;57495;49.922;7.966;2024-02-26T06:56:30;6.75;;;2.60;;
70132;SDS011;57495;49.922;7.966;2024-02-26T06:58:32;5.60;;;2.63;;
70132;SDS011;57495;49.922;7.966;2024-02-26T07:00:34;8.93;;;4.47;;
70132;SDS011;57495;49.922;7.966;2024-02-26T07:02:35;10.02;;;5.60;;
70132;SDS011;57495;49.922;7.966;2024-02-26T07:04:36;8.37;;;3.40;;
70132;SDS011;57495;49.922;7.966;2024-02-26T07:06:37;6.10;;;3.10;;
70132;SDS011;57495;49.922;7.966;2024-02-26T07:08:38;9.88;;;6.20;;
70132;SDS011;57495;49.922;7.966;2024-02-26T07:10:40;9.47;;;4.23;;
70132;SDS011;57495;49.922;7.966;2024-02-26T07:12:43;13.35;;;7.15;;
70132;SDS011;57495;49.922;7.966;2024-02-26T07:14:44;8.15;;;5.15;;
70132;SDS011;57495;49.922;7.966;2024-02-26T07:16:46;7.53;;;3.65;;
70132;SDS011;57495;49.922;7.966;2024-02-26T07:18:47;7.13;;;3.47;;
70132;SDS011;57495;49.922;7.966;2024-02-26T07:20:48;7.27;;;3.40;;
70132;SDS011;57495;49.922;7.966;2024-02-26T07:22:50;7.68;;;3.17;;
70132;SDS011;57495;49.922;7.966;2024-02-26T07:24:51;7.75;;;2.90;;
70132;SDS011;57495;49.922;7.966;2024-02-26T07:26:53;6.35;;;2.88;;
70132;SDS011;57495;49.922;7.966;2024-02-26T07:28:56;8.68;;;3.20;;
70132;SDS011;57495;49.922;7.966;2024-02-26T07:30:58;5.40;;;2.43;;
70132;SDS011;57495;49.922;7.966;2024-02-26T07:32:59;6.20;;;2.58;;
70132;SDS011;57495;49.922;7.966;2024-02-26T07:35:00;5.80;;;2.60;;
70132;SDS011;57495;49.922;7.966;2024-02-26T07:37:02;6.22;;;2.15;;
70132;SDS011;57495;49.922;7.966;2024-02-26T07:39:06;6.03;;;2.47;;
70132;SDS011;57495;49.922;7.966;2024-02-26T07:41:07;5.23;;;2.27;;
70132;SDS011;57495;49.922;7.966;2024-02-26T07:43:08;8.15;;;2.15;;
70132;SDS011;57495;49.922;7.966;2024-02-26T07:45:11;6.28;;;2.10;;
70132;SDS011;57495;49.922;7.966;2024-02-26T07:47:12;5.15;;;1.98;;
70132;SDS011;57495;49.922;7.966;2024-02-26T07:49:14;7.63;;;2.08;;
70132;SDS011;57495;49.922;7.966;2024-02-26T07:51:15;5.63;;;1.90;;
70132;SDS011;57495;49.922;7.966;2024-02-26T07:53:16;5.63;;;1.73;;
70132;SDS011;57495;49.922;7.966;2024-02-26T07:55:17;5.30;;;2.10;;
70132;SDS011;57495;49.922;7.966;2024-02-26T07:57:19;5.55;;;2.30;;
70132;SDS011;57495;49.922;7.966;2024-02-26T07:59:21;5.55;;;1.95;;
70132;SDS011;57495;49.922;7.966;2024-02-26T08:01:24;5.68;;;2.35;;
70132;SDS011;57495;49.922;7.966;2024-02-26T08:03:26;4.82;;;2.42;;
70132;SDS011;57495;49.922;7.966;2024-02-26T08:05:28;5.67;;;2.10;;
70132;SDS011;57495;49.922;7.966;2024-02-26T08:07:29;5.68;;;2.53;;
70132;SDS011;57495;49.922;7.966;2024-02-26T08:09:30;5.60;;;2.22;;
70132;SDS011;57495;49.922;7.966;2024-02-26T08:11:32;5.10;;;2.00;;
70132;SDS011;57495;49.922;7.966;2024-02-26T08:13:32;5.70;;;2.13;;
70132;SDS011;57495;49.922;7.966;2024-02-26T08:15:34;6.20;;;2.25;;
70132;SDS011;57495;49.922;7.966;2024-02-26T08:17:38;6.63;;;2.17;;
70132;SDS011;57495;49.922;7.966;2024-02-26T08:19:40;5.55;;;2.17;;
70132;SDS011;57495;49.922;7.966;2024-02-26T08:21:41;5.57;;;2.03;;
70132;SDS011;57495;49.922;7.966;2024-02-26T08:23:42;5.65;;;2.25;;
70132;SDS011;57495;49.922;7.966;2024-02-26T08:25:44;4.77;;;2.00;;
70132;SDS011;57495;49.922;7.966;2024-02-26T08:27:45;5.63;;;2.67;;
70132;SDS011;57495;49.922;7.966;2024-02-26T08:29:47;5.07;;;2.33;;
70132;SDS011;57495;49.922;7.966;2024-02-26T08:31:48;7.07;;;2.80;;
70132;SDS011;57495;49.922;7.966;2024-02-26T08:33:51;5.50;;;2.35;;
70132;SDS011;57495;49.922;7.966;2024-02-26T08:35:53;6.87;;;2.30;;
70132;SDS011;57495;49.922;7.966;2024-02-26T08:37:54;5.43;;;2.38;;
70132;SDS011;57495;49.922;7.966;2024-02-26T08:39:55;7.03;;;2.42;;
70132;SDS011;57495;49.922;7.966;2024-02-26T08:41:56;6.53;;;2.77;;
70132;SDS011;57495;49.922;7.966;2024-02-26T08:43:57;6.22;;;2.80;;
70132;SDS011;57495;49.922;7.966;2024-02-26T08:46:01;6.25;;;2.72;;
70132;SDS011;57495;49.922;7.966;2024-02-26T08:48:03;6.97;;;2.70;;
70132;SDS011;57495;49.922;7.966;2024-02-26T08:50:06;7.00;;;3.60;;
70132;SDS011;57495;49.922;7.966;2024-02-26T08:52:09;10.13;;;4.43;;
70132;SDS011;57495;49.922;7.966;2024-02-26T08:54:10;6.47;;;2.87;;
70132;SDS011;57495;49.922;7.966;2024-02-26T08:56:11;6.97;;;2.70;;
70132;SDS011;57495;49.922;7.966;2024-02-26T08:58:16;5.72;;;2.45;;
70132;SDS011;57495;49.922;7.966;2024-02-26T09:00:18;6.32;;;2.88;;
70132;SDS011;57495;49.922;7.966;2024-02-26T09:02:20;5.32;;;2.45;;
70132;SDS011;57495;49.922;7.966;2024-02-26T09:04:21;6.50;;;2.80;;
70132;SDS011;57495;49.922;7.966;2024-02-26T09:06:24;7.13;;;3.22;;
70132;SDS011;57495;49.922;7.966;2024-02-26T09:08:26;6.38;;;2.55;;
70132;SDS011;57495;49.922;7.966;2024-02-26T09:10:28;6.18;;;3.10;;
70132;SDS011;57495;49.922;7.966;2024-02-26T09:12:29;6.25;;;2.97;;
70132;SDS011;57495;49.922;7.966;2024-02-26T09:14:31;6.00;;;3.00;;
70132;SDS011;57495;49.922;7.966;2024-02-26T09:16:31;6.13;;;3.15;;
70132;SDS011;57495;49.922;7.966;2024-02-26T09:18:33;6.28;;;3.20;;
70132;SDS011;57495;49.922;7.966;2024-02-26T09:20:33;6.73;;;3.33;;
70132;SDS011;57495;49.922;7.966;2024-02-26T09:22:36;6.32;;;3.10;;
70132;SDS011;57495;49.922;7.966;2024-02-26T09:24:38;6.37;;;3.13;;
70132;SDS011;57495;49.922;7.966;2024-02-26T09:26:40;8.27;;;3.63;;
70132;SDS011;57495;49.922;7.966;2024-02-26T09:28:41;6.65;;;3.83;;
70132;SDS011;57495;49.922;7.966;2024-02-26T09:30:42;7.68;;;3.55;;
70132;SDS011;57495;49.922;7.966;2024-02-26T09:32:45;8.13;;;3.60;;
70132;SDS011;57495;49.922;7.966;2024-02-26T09:34:47;6.53;;;3.25;;
70132;SDS011;57495;49.922;7.966;2024-02-26T09:36:48;5.97;;;3.30;;
70132;SDS011;57495;49.922;7.966;2024-02-26T09:38:50;7.22;;;3.63;;
70132;SDS011;57495;49.922;7.966;2024-02-26T09:40:52;7.85;;;3.58;;
70132;SDS011;57495;49.922;7.966;2024-02-26T09:42:55;6.07;;;3.17;;
70132;SDS011;57495;49.922;7.966;2024-02-26T09:45:00;6.90;;;3.50;;
70132;SDS011;57495;49.922;7.966;2024-02-26T09:47:08;7.03;;;3.22;;
70132;SDS011;57495;49.922;7.966;2024-02-26T09:49:11;5.82;;;3.20;;
70132;SDS011;57495;49.922;7.966;2024-02-26T09:51:14;5.97;;;3.13;;
70132;SDS011;57495;49.922;7.966;2024-02-26T09:53:17;6.38;;;3.25;;
70132;SDS011;57495;49.922;7.966;2024-02-26T09:55:24;6.53;;;2.97;;
70132;SDS011;57495;49.922;7.966;2024-02-26T09:57:25;6.32;;;2.83;;
70132;SDS011;57495;49.922;7.966;2024-02-26T09:59:26;7.38;;;3.38;;
70132;SDS011;57495;49.922;7.966;2024-02-26T10:01:28;6.60;;;2.95;;
70132;SDS011;57495;49.922;7.966;2024-02-26T10:03:36;6.60;;;3.30;;
70132;SDS011;57495;49.922;7.966;2024-02-26T10:05:40;6.33;;;3.07;;
70132;SDS011;57495;49.922;7.966;2024-02-26T10:07:42;5.38;;;2.75;;
70132;SDS011;57495;49.922;7.966;2024-02-26T10:09:44;7.70;;;3.03;;
70132;SDS011;57495;49.922;7.966;2024-02-26T10:11:47;6.57;;;3.33;;
70132;SDS011;57495;49.922;7.966;2024-02-26T10:13:50;5.60;;;3.33;;
70132;SDS011;57495;49.922;7.966;2024-02-26T10:15:51;6.60;;;3.00;;
70132;SDS011;57495;49.922;7.966;2024-02-26T10:17:55;6.65;;;3.08;;
70132;SDS011;57495;49.922;7.966;2024-02-26T10:20:10;7.05;;;3.42;;
70132;SDS011;57495;49.922;7.966;2024-02-26T10:22:13;6.90;;;3.67;;
70132;SDS011;57495;49.922;7.966;2024-02-26T10:24:14;6.28;;;3.55;;
70132;SDS011;57495;49.922;7.966;2024-02-26T10:26:15;8.48;;;4.47;;
70132;SDS011;57495;49.922;7.966;2024-02-26T10:28:19;6.57;;;3.97;;
70132;SDS011;57495;49.922;7.966;2024-02-26T10:30:20;8.02;;;4.03;;
70132;SDS011;57495;49.922;7.966;2024-02-26T10:32:22;6.53;;;3.60;;
70132;SDS011;57495;49.922;7.966;2024-02-26T10:34:23;6.50;;;3.60;;
70132;SDS011;57495;49.922;7.966;2024-02-26T10:36:25;6.90;;;4.25;;
70132;SDS011;57495;49.922;7.966;2024-02-26T10:38:27;7.20;;;3.77;;
70132;SDS011;57495;49.922;7.966;2024-02-26T10:40:28;10.30;;;4.20;;
70132;SDS011;57495;49.922;7.966;2024-02-26T10:42:30;7.60;;;3.85;;
70132;SDS011;57495;49.922;7.966;2024-02-26T10:44:33;7.47;;;3.40;;
70132;SDS011;57495;49.922;7.966;2024-02-26T10:46:34;6.88;;;3.60;;
70132;SDS011;57495;49.922;7.966;2024-02-26T10:48:37;8.87;;;4.60;;
70132;SDS011;57495;49.922;7.966;2024-02-26T10:50:39;7.10;;;3.88;;
70132;SDS011;57495;49.922;7.966;2024-02-26T10:52:41;7.07;;;3.80;;
70132;SDS011;57495;49.922;7.966;2024-02-26T10:54:42;6.95;;;3.40;;
70132;SDS011;57495;49.922;7.966;2024-02-26T10:56:48;7.53;;;4.15;;
70132;SDS011;57495;49.922;7.966;2024-02-26T10:58:51;6.77;;;3.83;;
70132;SDS011;57495;49.922;7.966;2024-02-26T11:00:55;7.75;;;4.47;;
70132;SDS011;57495;49.922;7.966;2024-02-26T11:02:58;6.50;;;3.80;;
70132;SDS011;57495;49.922;7.966;2024-02-26T11:05:03;7.80;;;4.60;;
70132;SDS011;57495;49.922;7.966;2024-02-26T11:07:05;8.68;;;4.93;;
70132;SDS011;57495;49.922;7.966;2024-02-26T11:09:07;8.83;;;5.20;;
70132;SDS011;57495;49.922;7.966;2024-02-26T11:11:13;9.55;;;5.40;;
70132;SDS011;57495;49.922;7.966;2024-02-26T11:13:15;8.27;;;5.25;;
70132;SDS011;57495;49.922;7.966;2024-02-26T11:15:19;8.77;;;4.88;;
70132;SDS011;57495;49.922;7.966;2024-02-26T11:17:22;9.40;;;5.50;;
70132;SDS011;57495;49.922;7.966;2024-02-26T11:19:25;9.38;;;5.32;;
70132;SDS011;57495;49.922;7.966;2024-02-26T11:21:29;8.98;;;5.32;;
70132;SDS011;57495;49.922;7.966;2024-02-26T11:23:38;11.35;;;5.43;;
70132;SDS011;57495;49.922;7.966;2024-02-26T11:25:40;9.82;;;5.30;;
70132;SDS011;57495;49.922;7.966;2024-02-26T11:27:43;9.93;;;4.80;;
70132;SDS011;57495;49.922;7.966;2024-02-26T11:29:47;9.95;;;5.05;;
70132;SDS011;57495;49.922;7.966;2024-02-26T11:31:52;9.25;;;5.13;;
70132;SDS011;57495;49.922;7.966;2024-02-26T11:33:55;9.07;;;5.35;;
70132;SDS011;57495;49.922;7.966;2024-02-26T11:35:57;7.57;;;4.40;;
70132;SDS011;57495;49.922;7.966;2024-02-26T11:37:59;8.47;;;4.43;;
70132;SDS011;57495;49.922;7.966;2024-02-26T11:40:01;9.82;;;4.72;;
70132;SDS011;57495;49.922;7.966;2024-02-26T11:42:04;9.57;;;5.22;;
70132;SDS011;57495;49.922;7.966;2024-02-26T11:44:06;20.15;;;11.13;;
70132;SDS011;57495;49.922;7.966;2024-02-26T11:46:12;12.90;;;7.63;;
70132;SDS011;57495;49.922;7.966;2024-02-26T11:48:25;17.37;;;9.53;;
70132;SDS011;57495;49.922;7.966;2024-02-26T11:50:34;10.65;;;5.65;;
70132;SDS011;57495;49.922;7.966;2024-02-26T11:52:36;9.68;;;5.20;;
70132;SDS011;57495;49.922;7.966;2024-02-26T11:54:38;10.57;;;5.15;;
70132;SDS011;57495;49.922;7.966;2024-02-26T11:56:40;9.55;;;4.78;;
70132;SDS011;57495;49.922;7.966;2024-02-26T11:58:41;11.13;;;5.07;;
70132;SDS011;57495;49.922;7.966;2024-02-26T12:00:42;10.05;;;5.30;;
70132;SDS011;57495;49.922;7.966;2024-02-26T12:02:44;9.68;;;5.55;;
70132;SDS011;57495;49.922;7.966;2024-02-26T12:04:45;8.43;;;5.03;;
70132;SDS011;57495;49.922;7.966;2024-02-26T12:06:50;9.48;;;4.85;;
70132;SDS011;57495;49.922;7.966;2024-02-26T12:08:51;9.48;;;5.65;;
70132;SDS011;57495;49.922;7.966;2024-02-26T12:10:53;9.80;;;5.20;;
70132;SDS011;57495;49.922;7.966;2024-02-26T12:12:58;8.75;;;5.20;;
70132;SDS011;57495;49.922;7.966;2024-02-26T12:15:01;8.85;;;5.20;;